Lakefield, Canada
Current Conditions -  °F | °C
As of 9:00 PM on Friday 24 Oct 2014 (Local Time) from CYPQ Reporting Station
Overcast Overcast  
Wind Chill:   Ceiling: 6500
Heat Index:   Visibility: 9mi
Dew Point:   Wind: 2mph
Humidity: 87%   Direction: NA
Pressure: 29.92"   Gusts: NA
Location:  44.43°N, 78.27°W
Report Text: CYPQ 250100Z AUTO VRB02KT 9SM OVC065 06/04 A2992 RMK SLP137
Loading
Personal Weather Stations






























Interactive Weather Map
Tropical Storm Tracking
New forecast layout! Learn more

10-Day Weather Forecast

Advertisements
Track Severe Weather on mobile